Time;durP1;ratioP1;P1;durP2;ratioP2;P2;SDS_P1;SDS_P2;PMS_P1;PMS_P2;Temp;Humidity;BMP_temperature;BMP_pressure;BME280_temperature;BME280_humidity;BME280_pressure;Samples;Min_cycle;Max_cycle;Signal;HPM_P1;HPM_P2
2021/04/27 00:01:41;;;;;;;4.13;3.03;;;9.90;58.90;;;;;;5016605;28;20479;-57
2021/04/27 00:04:07;;;;;;;3.80;2.83;;;9.90;57.90;;;;;;5016657;28;20170;-53
2021/04/27 00:06:33;;;;;;;3.20;2.53;;;10.00;56.70;;;;;;5016624;28;20170;-54
2021/04/27 00:08:58;;;;;;;3.23;2.30;;;10.00;56.90;;;;;;5016139;28;20221;-54
2021/04/27 00:11:24;;;;;;;3.90;2.47;;;10.00;57.00;;;;;;5016419;28;20171;-54
2021/04/27 00:13:50;;;;;;;4.33;2.90;;;9.90;57.80;;;;;;5016422;28;20169;-54
2021/04/27 00:16:15;;;;;;;2.63;2.40;;;9.90;57.90;;;;;;5016365;28;20195;-52
2021/04/27 00:18:41;;;;;;;2.93;2.63;;;9.70;57.90;;;;;;5015692;28;20221;-56
2021/04/27 00:21:07;;;;;;;4.10;2.97;;;9.80;59.30;;;;;;5016040;28;20403;-56
2021/04/27 00:23:33;;;;;;;5.37;3.23;;;9.70;58.70;;;;;;5015893;28;20688;-56
2021/04/27 00:25:58;;;;;;;4.00;2.60;;;9.60;58.30;;;;;;5016261;28;20170;-55
2021/04/27 00:28:24;;;;;;;3.20;2.73;;;9.60;58.40;;;;;;5016337;28;20423;-54
2021/04/27 00:30:51;;;;;;;5.50;2.73;;;9.50;58.70;;;;;;5016298;28;20169;-55
2021/04/27 00:33:17;;;;;;;7.70;3.00;;;9.50;59.10;;;;;;5016132;28;20255;-55
2021/04/27 00:35:42;;;;;;;4.30;3.07;;;9.50;59.40;;;;;;5015916;28;20408;-56
2021/04/27 00:38:08;;;;;;;2.83;2.53;;;9.50;59.50;;;;;;5002436;28;20419;-56
2021/04/27 00:40:33;;;;;;;3.87;2.40;;;9.50;59.50;;;;;;5015669;28;20193;-55
2021/04/27 00:42:59;;;;;;;4.37;2.90;;;9.40;59.90;;;;;;5015813;28;20195;-56
2021/04/27 00:45:27;;;;;;;4.77;3.30;;;9.30;60.40;;;;;;5015890;28;20198;-54
2021/04/27 00:47:54;;;;;;;3.13;2.83;;;9.20;60.80;;;;;;5015172;28;20413;-52
2021/04/27 00:50:33;;;;;;;5.30;3.07;;;9.20;61.30;;;;;;5014058;28;20442;-56
2021/04/27 00:52:59;;;;;;;4.33;2.67;;;9.10;61.40;;;;;;5014714;28;20864;-60
2021/04/27 00:55:26;;;;;;;3.40;2.90;;;9.00;62.10;;;;;;5009491;28;20417;-55
2021/04/27 00:57:52;;;;;;;3.60;3.00;;;8.90;62.30;;;;;;4996317;28;20436;-52
2021/04/27 01:00:22;;;;;;;4.20;3.27;;;8.90;62.40;;;;;;5010744;28;20426;-56
2021/04/27 01:02:48;;;;;;;3.40;2.77;;;8.80;63.30;;;;;;5015812;28;20966;-53
2021/04/27 01:05:19;;;;;;;3.90;3.03;;;8.60;63.50;;;;;;5015274;28;20409;-56
2021/04/27 01:08:13;;;;;;;2.60;2.40;;;8.50;64.40;;;;;;5015466;28;20179;-55
2021/04/27 01:11:04;;;;;;;4.20;2.70;;;8.50;64.40;;;;;;5016036;28;20384;-54
2021/04/27 01:13:51;;;;;;;3.13;2.60;;;8.40;65.40;;;;;;5015816;28;20389;-53
2021/04/27 01:16:17;;;;;;;4.00;2.97;;;8.40;65.00;;;;;;5015513;28;20384;-55
2021/04/27 01:18:49;;;;;;;3.03;2.73;;;8.30;64.60;;;;;;5001367;28;20486;-55
2021/04/27 01:21:17;;;;;;;2.90;2.60;;;8.20;65.20;;;;;;5014341;28;20411;-54
2021/04/27 01:23:49;;;;;;;4.40;2.90;;;8.30;65.90;;;;;;5014770;28;20417;-55
2021/04/27 01:26:20;;;;;;;3.17;2.70;;;8.30;65.90;;;;;;5015277;28;20395;-52
2021/04/27 01:28:48;;;;;;;4.37;2.90;;;8.30;66.20;;;;;;5015085;28;20434;-51
2021/04/27 01:31:15;;;;;;;5.03;3.27;;;8.20;66.20;;;;;;5014034;28;20466;-55
2021/04/27 01:33:42;;;;;;;3.60;2.80;;;8.10;66.80;;;;;;5015285;28;20404;-55
2021/04/27 01:36:08;;;;;;;3.67;2.83;;;7.90;67.40;;;;;;5005757;28;20871;-52
2021/04/27 01:38:35;;;;;;;4.70;3.23;;;7.90;67.90;;;;;;4994821;28;20815;-56
2021/04/27 01:41:00;;;;;;;4.63;2.83;;;7.90;67.90;;;;;;5056809;22;20476;-57
2021/04/27 01:43:27;;;;;;;4.43;3.20;;;7.90;68.10;;;;;;5054727;28;20523;-58
2021/04/27 01:46:03;;;;;;;4.23;3.73;;;7.90;68.20;;;;;;5055025;28;20171;-58
2021/04/27 01:48:29;;;;;;;4.63;3.10;;;7.90;68.50;;;;;;5054672;28;20415;-57
2021/04/27 01:50:55;;;;;;;3.93;3.00;;;7.80;68.80;;;;;;5054837;28;20829;-56
2021/04/27 01:53:22;;;;;;;3.83;3.37;;;7.80;69.10;;;;;;5054614;28;20643;-55
2021/04/27 01:55:49;;;;;;;3.87;3.30;;;7.70;69.60;;;;;;5054311;28;20460;-56
2021/04/27 01:58:15;;;;;;;4.70;3.20;;;7.70;70.20;;;;;;5044215;28;20453;-54
2021/04/27 02:00:41;;;;;;;4.33;2.97;;;7.70;70.80;;;;;;5055618;28;20795;-59
2021/04/27 02:03:06;;;;;;;3.67;3.30;;;7.70;70.70;;;;;;5056229;28;20674;-57
2021/04/27 02:05:32;;;;;;;4.90;3.10;;;7.60;70.50;;;;;;5057748;28;20175;-57
2021/04/27 02:07:58;;;;;;;9.13;3.50;;;7.50;70.40;;;;;;5054791;28;20175;-56
2021/04/27 02:10:25;;;;;;;4.33;3.03;;;7.60;70.80;;;;;;5053995;28;20429;-54
2021/04/27 02:12:53;;;;;;;5.23;2.97;;;7.60;70.40;;;;;;5054111;28;20179;-57
2021/04/27 02:15:22;;;;;;;5.40;3.50;;;7.40;70.30;;;;;;5053977;28;20412;-56
2021/04/27 02:18:02;;;;;;;4.10;2.97;;;7.50;71.20;;;;;;5053847;28;20833;-57
2021/04/27 02:20:29;;;;;;;3.47;3.17;;;7.50;71.40;;;;;;5053345;28;20421;-53
2021/04/27 02:22:57;;;;;;;6.13;3.20;;;7.60;71.50;;;;;;5053837;28;20471;-54
2021/04/27 02:25:23;;;;;;;4.97;3.37;;;7.50;71.40;;;;;;5052023;28;20438;-54
2021/04/27 02:27:51;;;;;;;6.00;3.53;;;7.50;72.00;;;;;;5054176;28;20409;-55
2021/04/27 02:30:19;;;;;;;4.23;3.50;;;7.50;72.30;;;;;;5053916;28;20417;-56
2021/04/27 02:32:45;;;;;;;3.17;2.87;;;7.40;72.00;;;;;;5053954;28;20402;-57
2021/04/27 02:35:13;;;;;;;4.47;2.77;;;7.40;72.80;;;;;;5053707;28;20409;-56
2021/04/27 02:37:41;;;;;;;3.93;3.53;;;7.50;72.70;;;;;;5041471;28;20449;-54
2021/04/27 02:40:08;;;;;;;4.00;3.00;;;7.40;73.10;;;;;;5045067;28;20449;-56
2021/04/27 02:42:38;;;;;;;4.53;3.20;;;7.40;72.90;;;;;;5053596;28;20488;-57
2021/04/27 02:45:06;;;;;;;3.77;3.37;;;7.50;72.60;;;;;;5053425;28;20413;-57
2021/04/27 02:47:32;;;;;;;4.47;3.33;;;7.40;73.40;;;;;;5052826;28;20410;-54
2021/04/27 02:49:57;;;;;;;4.17;3.50;;;7.40;74.50;;;;;;5051980;28;20462;-57
2021/04/27 02:52:23;;;;;;;4.13;3.33;;;7.50;73.50;;;;;;5053680;28;20643;-54
2021/04/27 02:54:48;;;;;;;4.60;3.43;;;7.50;73.00;;;;;;5053695;28;20185;-57
2021/04/27 02:57:14;;;;;;;3.73;2.93;;;7.50;73.50;;;;;;5053559;28;20639;-54
2021/04/27 02:59:40;;;;;;;4.00;3.60;;;7.40;74.00;;;;;;5053255;28;20194;-55
2021/04/27 03:02:06;;;;;;;3.97;3.57;;;7.30;75.30;;;;;;5053483;28;20186;-56
2021/04/27 03:04:32;;;;;;;4.10;3.40;;;7.20;75.60;;;;;;5053300;28;20190;-57
2021/04/27 03:06:57;;;;;;;3.80;3.40;;;7.30;75.20;;;;;;5053149;28;20167;-55
2021/04/27 03:09:23;;;;;;;6.43;4.00;;;7.20;76.20;;;;;;5052978;28;20417;-55
2021/04/27 03:11:48;;;;;;;4.13;3.47;;;7.10;76.30;;;;;;5053392;28;20170;-57
2021/04/27 03:14:14;;;;;;;3.20;2.90;;;7.20;76.10;;;;;;5052541;28;20167;-57
2021/04/27 03:16:39;;;;;;;3.80;3.47;;;7.20;76.20;;;;;;5051837;28;20687;-58
2021/04/27 03:19:05;;;;;;;4.17;3.37;;;7.20;76.70;;;;;;5044264;28;20258;-58
2021/04/27 03:21:31;;;;;;;4.17;3.50;;;7.30;76.60;;;;;;5052795;28;20162;-57
2021/04/27 03:23:56;;;;;;;3.73;3.33;;;7.20;76.30;;;;;;5052687;28;20178;-55
2021/04/27 03:26:23;;;;;;;3.93;3.60;;;7.20;76.50;;;;;;5053083;28;20177;-58
2021/04/27 03:28:49;;;;;;;4.00;3.60;;;7.20;77.30;;;;;;5053351;28;20167;-56
2021/04/27 03:31:15;;;;;;;4.40;3.53;;;7.10;77.90;;;;;;5053088;28;20493;-58
2021/04/27 03:33:41;;;;;;;3.77;3.33;;;7.10;77.80;;;;;;5051695;28;20171;-57
2021/04/27 03:36:06;;;;;;;3.43;3.10;;;6.90;78.40;;;;;;5052993;28;20428;-58
2021/04/27 03:38:32;;;;;;;3.90;3.50;;;6.80;79.30;;;;;;5052281;28;20190;-56
2021/04/27 03:40:58;;;;;;;4.43;3.67;;;6.80;80.10;;;;;;5052411;28;20205;-57
2021/04/27 03:43:23;;;;;;;4.50;3.50;;;6.90;80.30;;;;;;5052841;28;20282;-58
2021/04/27 03:45:49;;;;;;;4.50;3.53;;;6.90;79.90;;;;;;5052910;28;20167;-55
2021/04/27 03:48:17;;;;;;;6.73;3.50;;;6.60;80.80;;;;;;5052661;28;20183;-54
2021/04/27 03:50:43;;;;;;;5.47;3.80;;;6.60;80.50;;;;;;5052632;28;20270;-56
2021/04/27 03:53:10;;;;;;;7.50;4.20;;;6.60;81.00;;;;;;5051539;28;20420;-57
2021/04/27 03:55:36;;;;;;;5.87;3.30;;;6.70;81.60;;;;;;5052408;28;20413;-57
2021/04/27 03:58:03;;;;;;;4.73;3.40;;;6.80;82.30;;;;;;5039138;28;20788;-55
2021/04/27 04:00:29;;;;;;;4.17;3.27;;;6.70;82.50;;;;;;5045515;28;20777;-54
2021/04/27 04:02:55;;;;;;;3.70;3.40;;;6.80;82.60;;;;;;5052778;28;20484;-57
2021/04/27 04:05:20;;;;;;;4.17;3.23;;;6.90;82.40;;;;;;5052431;28;20940;-54
2021/04/27 04:07:46;;;;;;;6.03;3.70;;;6.90;82.00;;;;;;5052809;28;20174;-55
2021/04/27 04:10:13;;;;;;;8.43;3.43;;;6.70;82.40;;;;;;5052209;28;20270;-57
2021/04/27 04:12:40;;;;;;;8.03;3.43;;;6.80;83.20;;;;;;5052709;28;20606;-56
2021/04/27 04:15:09;;;;;;;3.43;2.97;;;6.70;82.90;;;;;;5052461;28;20491;-54
2021/04/27 04:17:35;;;;;;;4.80;2.63;;;6.70;83.40;;;;;;5052393;28;20773;-56
2021/04/27 04:20:03;;;;;;;4.83;3.07;;;6.70;84.20;;;;;;5042991;28;20471;-54
2021/04/27 04:22:29;;;;;;;3.63;3.20;;;6.70;84.60;;;;;;5051826;28;20451;-54
2021/04/27 04:24:55;;;;;;;4.97;3.17;;;6.60;85.60;;;;;;5051911;28;20416;-57
2021/04/27 04:27:20;;;;;;;3.97;3.57;;;6.60;85.30;;;;;;5056271;28;20201;-55
2021/04/27 04:29:46;;;;;;;7.53;4.37;;;6.60;85.50;;;;;;5055995;28;20228;-57
2021/04/27 04:32:13;;;;;;;4.03;3.27;;;6.70;86.00;;;;;;5056179;28;20215;-56
2021/04/27 04:34:40;;;;;;;3.97;3.63;;;6.70;86.30;;;;;;5056342;28;20315;-57
2021/04/27 04:37:08;;;;;;;4.07;3.70;;;6.70;87.90;;;;;;5043416;28;20417;-56
2021/04/27 04:39:33;;;;;;;9.10;3.80;;;6.70;86.80;;;;;;5046394;28;20545;-56
2021/04/27 04:41:59;;;;;;;6.90;4.30;;;6.70;87.20;;;;;;5055638;28;20429;-55
2021/04/27 04:44:25;;;;;;;4.10;3.70;;;6.60;86.40;;;;;;5055724;28;20173;-56
2021/04/27 04:46:51;;;;;;;4.93;3.83;;;6.60;86.50;;;;;;5055542;28;20166;-55
2021/04/27 04:49:16;;;;;;;5.20;4.30;;;6.60;86.80;;;;;;5055617;28;20504;-55
2021/04/27 04:51:42;;;;;;;4.80;3.87;;;6.80;86.60;;;;;;5055351;28;20216;-56
2021/04/27 04:54:07;;;;;;;5.87;3.73;;;6.80;86.30;;;;;;5055704;28;20183;-56
2021/04/27 04:56:33;;;;;;;4.23;3.87;;;6.80;87.20;;;;;;5055400;28;20254;-55
2021/04/27 04:58:59;;;;;;;5.53;4.07;;;6.90;87.10;;;;;;5055503;28;20175;-56
2021/04/27 05:01:24;;;;;;;5.50;4.27;;;7.00;86.70;;;;;;5055340;28;20186;-54
2021/04/27 05:03:50;;;;;;;4.40;3.60;;;7.00;86.40;;;;;;5055496;28;20181;-58
2021/04/27 05:06:17;;;;;;;7.30;4.70;;;7.10;86.90;;;;;;5054781;28;20174;-57
2021/04/27 05:08:49;;;;;;;7.40;3.93;;;7.20;86.90;;;;;;5056299;28;20256;-57
2021/04/27 05:11:15;;;;;;;4.20;3.80;;;7.30;86.00;;;;;;5058592;28;20413;-58
2021/04/27 05:13:42;;;;;;;5.87;4.07;;;7.40;85.70;;;;;;5056267;28;20440;-56
2021/04/27 05:16:09;;;;;;;5.57;4.40;;;7.40;84.90;;;;;;5056086;28;20397;-54
2021/04/27 05:18:39;;;;;;;6.60;4.37;;;7.40;86.10;;;;;;5037126;28;20175;-54
2021/04/27 05:21:06;;;;;;;10.53;5.10;;;7.50;86.40;;;;;;5053314;28;20433;-58
2021/04/27 05:23:31;;;;;;;6.20;4.10;;;7.60;85.70;;;;;;5054977;28;20455;-56
2021/04/27 05:25:57;;;;;;;5.73;4.40;;;7.60;85.60;;;;;;5055096;28;20410;-57
2021/04/27 05:28:23;;;;;;;7.43;5.10;;;7.80;85.40;;;;;;5055026;28;20411;-54
2021/04/27 05:30:49;;;;;;;7.23;5.50;;;7.90;85.10;;;;;;5054863;28;20189;-57
2021/04/27 05:33:15;;;;;;;6.30;5.00;;;8.10;84.90;;;;;;5054687;28;20258;-56
2021/04/27 05:35:43;;;;;;;5.70;4.90;;;8.20;85.10;;;;;;5054487;28;20842;-56
2021/04/27 05:38:10;;;;;;;7.03;5.20;;;8.40;85.70;;;;;;5054037;28;20183;-57
2021/04/27 05:40:36;;;;;;;5.80;4.97;;;8.50;84.50;;;;;;5054220;28;20535;-56
2021/04/27 05:43:02;;;;;;;7.50;4.80;;;8.50;83.40;;;;;;5054619;28;20936;-57
2021/04/27 05:45:28;;;;;;;5.90;3.90;;;8.40;79.80;;;;;;5054924;28;20851;-57
2021/04/27 05:47:54;;;;;;;5.77;3.97;;;8.40;80.60;;;;;;5043331;28;20450;-58
2021/04/27 05:50:20;;;;;;;9.00;4.63;;;8.50;79.90;;;;;;5034198;28;20200;-58
2021/04/27 05:52:46;;;;;;;8.37;4.87;;;8.30;78.50;;;;;;5034634;28;20176;-55
2021/04/27 05:55:12;;;;;;;8.87;4.83;;;8.40;78.80;;;;;;5034481;28;20410;-57
2021/04/27 05:57:38;;;;;;;5.67;4.63;;;8.30;79.10;;;;;;5032167;28;20308;-56
2021/04/27 06:00:05;;;;;;;5.63;4.03;;;8.30;77.90;;;;;;5053923;28;20875;-57
2021/04/27 06:02:31;;;;;;;6.60;4.67;;;8.30;77.70;;;;;;5054233;28;20496;-57
2021/04/27 06:04:56;;;;;;;8.23;4.70;;;8.60;78.00;;;;;;5053360;28;20468;-55
2021/04/27 06:07:22;;;;;;;5.50;4.13;;;8.80;77.80;;;;;;5053986;28;20246;-57
2021/04/27 06:09:48;;;;;;;7.40;4.03;;;8.80;77.30;;;;;;5054040;28;20226;-55
2021/04/27 06:12:14;;;;;;;4.80;4.23;;;8.90;77.20;;;;;;5053640;28;20170;-58
2021/04/27 06:14:39;;;;;;;5.20;4.27;;;9.00;76.30;;;;;;5054151;28;20965;-57
2021/04/27 06:17:05;;;;;;;8.30;4.47;;;9.20;75.80;;;;;;5052878;28;20174;-58
2021/04/27 06:19:30;;;;;;;6.13;4.50;;;8.90;74.60;;;;;;5044544;28;20279;-57
2021/04/27 06:21:56;;;;;;;6.57;5.00;;;8.70;75.30;;;;;;5033777;28;20199;-57
2021/04/27 06:24:22;;;;;;;8.63;4.77;;;8.80;75.20;;;;;;5034085;28;20172;-57
2021/04/27 06:26:47;;;;;;;5.67;4.67;;;8.80;76.00;;;;;;5033634;28;20168;-58
2021/04/27 06:29:13;;;;;;;6.93;5.00;;;8.80;75.20;;;;;;5033827;28;20178;-54
2021/04/27 06:31:38;;;;;;;6.80;5.10;;;8.80;75.20;;;;;;5051830;28;20683;-54
2021/04/27 06:34:05;;;;;;;8.80;5.57;;;9.00;75.30;;;;;;5054003;28;20173;-57
2021/04/27 06:36:32;;;;;;;8.10;4.90;;;9.30;75.70;;;;;;5052251;28;20184;-53
2021/04/27 06:38:58;;;;;;;7.23;4.73;;;9.30;75.30;;;;;;5033963;28;20779;-56
2021/04/27 06:41:24;;;;;;;7.33;5.60;;;9.10;74.40;;;;;;5051886;28;20975;-53
2021/04/27 06:43:50;;;;;;;5.60;5.07;;;9.00;74.60;;;;;;5053646;28;20497;-53
2021/04/27 06:46:16;;;;;;;8.53;5.10;;;9.20;74.50;;;;;;5052796;28;20167;-55
2021/04/27 06:48:45;;;;;;;5.50;5.00;;;9.10;74.50;;;;;;5050800;28;20775;-52
2021/04/27 06:51:16;;;;;;;6.63;4.93;;;9.20;74.40;;;;;;5051873;28;20454;-53
2021/04/27 06:53:42;;;;;;;5.57;4.70;;;9.20;74.80;;;;;;5052984;28;20423;-57
2021/04/27 06:56:08;;;;;;;7.97;5.13;;;9.20;74.10;;;;;;5052958;28;20421;-55
2021/04/27 06:58:33;;;;;;;6.53;5.37;;;9.10;74.40;;;;;;5052864;28;20168;-54
2021/04/27 07:00:59;;;;;;;5.13;4.63;;;9.10;74.30;;;;;;5053710;28;20680;-53
2021/04/27 07:03:25;;;;;;;7.97;5.77;;;9.10;75.50;;;;;;5053472;28;20230;-52
2021/04/27 07:05:50;;;;;;;6.70;5.30;;;9.30;75.40;;;;;;5053212;28;20184;-54
2021/04/27 07:08:16;;;;;;;5.73;5.03;;;9.30;75.10;;;;;;5053498;28;20203;-53
2021/04/27 07:10:42;;;;;;;7.40;5.23;;;9.50;75.40;;;;;;5053268;28;20184;-53
2021/04/27 07:13:07;;;;;;;7.13;5.50;;;9.60;73.50;;;;;;5053407;28;20204;-53
2021/04/27 07:15:33;;;;;;;5.33;4.80;;;9.80;73.40;;;;;;5055822;28;20219;-53
2021/04/27 07:17:59;;;;;;;7.47;5.23;;;9.60;73.00;;;;;;5053621;28;20177;-52
2021/04/27 07:20:25;;;;;;;6.90;4.50;;;9.60;73.10;;;;;;5053244;28;20207;-54
2021/04/27 07:22:51;;;;;;;8.93;4.80;;;9.50;73.60;;;;;;5053615;28;20444;-53
2021/04/27 07:25:17;;;;;;;11.70;5.80;;;9.70;74.70;;;;;;5053411;28;20168;-54
2021/04/27 07:27:43;;;;;;;5.63;5.00;;;9.90;74.90;;;;;;5054233;28;20419;-55
2021/04/27 07:30:11;;;;;;;9.73;5.20;;;10.20;72.20;;;;;;5053479;28;20185;-52
2021/04/27 07:32:37;;;;;;;8.17;5.47;;;10.30;71.80;;;;;;5054182;28;20247;-55
2021/04/27 07:35:04;;;;;;;8.83;5.63;;;10.20;70.70;;;;;;5053901;28;20442;-54
2021/04/27 07:37:30;;;;;;;7.20;5.20;;;10.10;70.60;;;;;;5054204;28;20426;-55
2021/04/27 07:39:56;;;;;;;7.15;6.13;;;10.10;71.40;;;;;;5080248;22;20428;-53
2021/04/27 07:42:21;;;;;;;7.03;5.30;;;10.70;72.80;;;;;;5052883;28;20362;-53
2021/04/27 07:44:47;;;;;;;8.83;5.83;;;10.80;70.90;;;;;;5053136;28;20174;-52
2021/04/27 07:47:13;;;;;;;9.10;5.80;;;10.70;70.30;;;;;;5052864;28;20159;-56
2021/04/27 07:49:38;;;;;;;6.23;5.63;;;10.60;70.40;;;;;;5055508;28;20419;-54
2021/04/27 07:52:04;;;;;;;7.13;6.33;;;10.70;70.70;;;;;;5059726;28;20563;-55
2021/04/27 07:54:30;;;;;;;10.63;6.33;;;10.90;70.10;;;;;;5052854;28;20171;-53
2021/04/27 07:56:56;;;;;;;6.17;5.57;;;11.00;70.50;;;;;;5052405;28;20178;-50
2021/04/27 07:59:21;;;;;;;8.07;5.43;;;11.10;69.50;;;;;;5053026;28;20182;-52
2021/04/27 08:01:47;;;;;;;9.53;6.97;;;11.00;69.50;;;;;;5056387;28;20217;-53
2021/04/27 08:04:14;;;;;;;9.07;5.93;;;11.00;70.00;;;;;;5057063;28;20534;-53
2021/04/27 08:06:41;;;;;;;6.67;5.60;;;11.10;70.80;;;;;;5056417;28;20177;-52
2021/04/27 08:09:07;;;;;;;11.23;6.67;;;11.20;69.10;;;;;;5056848;28;20393;-55
2021/04/27 08:11:33;;;;;;;8.27;6.83;;;11.20;68.60;;;;;;5056329;28;20945;-54
2021/04/27 08:13:59;;;;;;;7.00;6.13;;;11.40;68.30;;;;;;5056766;28;20950;-56
2021/04/27 08:16:25;;;;;;;9.30;6.00;;;11.60;68.70;;;;;;5056748;28;20397;-51
2021/04/27 08:18:51;;;;;;;13.00;5.93;;;11.40;68.40;;;;;;5056494;28;20167;-54
2021/04/27 08:21:17;;;;;;;7.10;6.40;;;11.30;68.70;;;;;;5056065;28;20190;-55
2021/04/27 08:23:43;;;;;;;9.37;6.30;;;11.40;68.80;;;;;;5056386;28;20197;-56
2021/04/27 08:26:10;;;;;;;8.30;6.70;;;11.60;69.40;;;;;;5055651;28;20170;-51
2021/04/27 08:28:36;;;;;;;10.40;7.00;;;11.70;68.40;;;;;;5056547;28;20878;-53
2021/04/27 08:31:02;;;;;;;8.27;7.13;;;11.70;67.70;;;;;;5056344;28;20421;-54
2021/04/27 08:33:28;;;;;;;8.33;6.70;;;11.70;67.70;;;;;;5056098;28;20408;-55
2021/04/27 08:35:54;;;;;;;9.10;6.73;;;11.70;67.40;;;;;;5055995;28;20402;-55
2021/04/27 08:38:21;;;;;;;7.17;6.10;;;11.90;67.60;;;;;;5056126;28;20397;-55
2021/04/27 08:40:47;;;;;;;21.60;8.30;;;12.00;66.80;;;;;;5055590;28;20538;-55
2021/04/27 08:43:16;;;;;;;10.67;7.80;;;11.90;67.00;;;;;;5056046;28;20448;-55
2021/04/27 08:45:44;;;;;;;8.53;7.50;;;12.00;67.10;;;;;;5055825;28;20405;-56
2021/04/27 08:48:12;;;;;;;9.43;7.07;;;12.30;66.60;;;;;;5055641;28;20421;-51
2021/04/27 08:50:38;;;;;;;7.00;6.33;;;12.40;65.90;;;;;;5050711;28;20449;-54
2021/04/27 08:53:03;;;;;;;8.20;6.53;;;12.30;65.50;;;;;;5044397;28;20410;-56
2021/04/27 08:55:29;;;;;;;8.77;6.53;;;12.20;66.70;;;;;;5035682;28;20227;-55
2021/04/27 08:57:55;;;;;;;11.47;7.40;;;12.30;66.90;;;;;;5035714;28;20635;-52
2021/04/27 09:00:22;;;;;;;8.37;7.47;;;12.40;67.30;;;;;;5035724;28;20195;-54
2021/04/27 09:03:01;;;;;;;10.27;6.37;;;12.70;67.70;;;;;;5035879;28;20985;-54
2021/04/27 09:05:29;;;;;;;10.27;8.17;;;12.70;65.70;;;;;;5035284;28;20815;-55
2021/04/27 09:07:56;;;;;;;9.57;6.90;;;12.90;66.10;;;;;;5035433;28;20407;-55
2021/04/27 09:10:28;;;;;;;8.70;6.87;;;13.00;66.60;;;;;;5040573;28;20863;-55
2021/04/27 09:13:02;;;;;;;10.27;7.90;;;13.10;66.90;;;;;;5054816;28;20486;-51
2021/04/27 09:15:36;;;;;;;8.73;6.67;;;13.20;64.70;;;;;;5055574;28;20396;-56
2021/04/27 09:18:40;;;;;;;10.13;7.60;;;13.00;64.80;;;;;;5055038;28;20409;-56
2021/04/27 09:21:08;;;;;;;8.87;7.70;;;13.00;65.30;;;;;;5072371;28;20933;-56
2021/04/27 09:23:37;;;;;;;11.93;7.80;;;13.00;65.30;;;;;;5075032;28;21032;-55
2021/04/27 09:26:14;;;;;;;7.90;6.77;;;13.00;64.70;;;;;;5075030;28;20452;-53
2021/04/27 09:28:50;;;;;;;7.40;6.80;;;13.30;66.70;;;;;;5075354;28;20465;-54
2021/04/27 09:31:30;;;;;;;8.50;7.67;;;13.40;64.90;;;;;;5075029;28;20424;-52
2021/04/27 09:34:18;;;;;;;9.90;8.10;;;13.40;64.20;;;;;;5075267;28;20394;-54
2021/04/27 09:36:43;;;;;;;10.10;7.80;;;13.60;64.50;;;;;;5074804;28;20400;-55
2021/04/27 09:39:09;;;;;;;9.07;7.80;;;13.80;63.80;;;;;;5075128;28;20458;-53
2021/04/27 09:41:35;;;;;;;9.47;8.23;;;13.80;64.20;;;;;;5059120;28;20206;-53
2021/04/27 09:44:00;;;;;;;8.87;7.90;;;14.00;64.50;;;;;;5054726;28;20219;-56
2021/04/27 09:46:26;;;;;;;10.70;8.00;;;14.10;62.80;;;;;;5054924;28;20471;-53
2021/04/27 09:48:54;;;;;;;9.27;8.33;;;14.20;63.60;;;;;;5053528;28;20172;-56
2021/04/27 09:51:30;;;;;;;9.33;7.40;;;14.50;63.20;;;;;;5054438;28;20684;-55
2021/04/27 09:53:58;;;;;;;9.27;8.37;;;14.50;62.00;;;;;;5054799;28;20532;-54
2021/04/27 09:56:31;;;;;;;11.00;7.77;;;14.40;62.00;;;;;;5054548;28;20423;-55
2021/04/27 09:59:14;;;;;;;11.57;7.90;;;14.50;62.70;;;;;;5054875;28;20438;-53
2021/04/27 10:01:45;;;;;;;9.00;8.10;;;14.30;61.90;;;;;;5054644;28;20455;-55
2021/04/27 10:04:11;;;;;;;8.90;7.90;;;13.90;62.40;;;;;;5054882;28;20402;-53
2021/04/27 10:06:40;;;;;;;9.10;7.60;;;13.70;63.40;;;;;;5054199;28;20526;-53
2021/04/27 10:09:06;;;;;;;8.73;7.80;;;13.80;63.10;;;;;;5054597;28;20193;-55
2021/04/27 10:11:32;;;;;;;7.97;7.17;;;14.20;64.40;;;;;;5053982;28;20890;-51
2021/04/27 10:13:59;;;;;;;8.83;7.90;;;14.20;62.90;;;;;;5054575;28;20449;-54
2021/04/27 10:16:24;;;;;;;10.87;8.17;;;14.40;61.80;;;;;;5054434;28;20399;-54
2021/04/27 10:18:53;;;;;;;10.87;7.87;;;14.50;61.60;;;;;;5054566;28;20408;-54
2021/04/27 10:21:19;;;;;;;9.93;8.20;;;14.60;62.30;;;;;;5054048;28;20674;-56
2021/04/27 10:23:50;;;;;;;9.50;8.50;;;14.80;61.70;;;;;;5054222;28;20481;-54
2021/04/27 10:26:23;;;;;;;10.73;8.40;;;14.70;60.70;;;;;;5053943;28;20518;-55
2021/04/27 10:29:01;;;;;;;12.27;8.77;;;15.00;64.20;;;;;;5054243;28;20466;-54
2021/04/27 10:31:28;;;;;;;12.30;9.23;;;15.40;63.70;;;;;;5053818;28;20935;-54
2021/04/27 10:33:59;;;;;;;10.17;8.20;;;15.50;59.50;;;;;;5054438;28;20420;-56
2021/04/27 10:36:26;;;;;;;11.53;8.30;;;15.50;61.00;;;;;;5053517;28;20410;-56
2021/04/27 10:39:01;;;;;;;8.40;7.60;;;15.40;59.20;;;;;;5053786;28;20448;-55
2021/04/27 10:41:50;;;;;;;10.80;9.20;;;15.40;59.10;;;;;;5052941;28;20450;-54
2021/04/27 10:44:15;;;;;;;10.40;8.60;;;15.40;58.80;;;;;;5053758;28;20411;-53
2021/04/27 10:46:44;;;;;;;11.53;9.20;;;15.30;59.40;;;;;;5053959;28;20777;-54
2021/04/27 10:49:18;;;;;;;9.30;8.40;;;15.50;59.00;;;;;;5053829;28;20171;-55
2021/04/27 10:51:43;;;;;;;10.17;9.17;;;16.60;59.10;;;;;;5053490;28;20420;-56
2021/04/27 10:54:15;;;;;;;10.17;9.17;;;17.70;54.50;;;;;;5053614;28;20471;-55
2021/04/27 10:56:44;;;;;;;9.50;8.53;;;18.50;52.50;;;;;;5053218;28;20166;-56
2021/04/27 10:59:09;;;;;;;13.77;9.40;;;19.50;52.30;;;;;;5053734;28;20389;-51
2021/04/27 11:01:37;;;;;;;9.93;8.60;;;20.00;50.10;;;;;;5051643;28;20948;-54
2021/04/27 11:04:03;;;;;;;8.83;7.93;;;19.50;51.10;;;;;;5046794;28;20167;-55
2021/04/27 11:06:29;;;;;;;9.00;8.20;;;20.20;49.40;;;;;;5053288;28;20412;-55
2021/04/27 11:09:12;;;;;;;9.30;8.40;;;21.10;47.50;;;;;;5053138;28;20405;-54
2021/04/27 11:11:38;;;;;;;10.53;9.40;;;22.70;45.40;;;;;;5053069;28;20190;-55
2021/04/27 11:14:30;;;;;;;10.87;9.80;;;22.80;43.30;;;;;;5053315;28;20452;-51
2021/04/27 11:17:26;;;;;;;12.80;8.80;;;21.90;43.20;;;;;;5053533;28;20466;-56
2021/04/27 11:19:52;;;;;;;9.07;8.13;;;22.60;42.90;;;;;;5053003;28;20791;-56
2021/04/27 11:22:29;;;;;;;9.47;8.67;;;23.60;43.40;;;;;;5055138;28;20444;-57
2021/04/27 11:24:56;;;;;;;10.77;9.63;;;24.30;40.70;;;;;;5053341;28;20150;-56
2021/04/27 11:27:32;;;;;;;10.77;9.73;;;22.50;40.60;;;;;;5052772;28;20905;-55
2021/04/27 11:30:10;;;;;;;9.87;8.97;;;22.30;41.50;;;;;;5053145;28;20401;-57
2021/04/27 11:32:37;;;;;;;10.60;9.50;;;23.10;41.10;;;;;;5048516;28;20929;-56
2021/04/27 11:35:16;;;;;;;9.53;8.63;;;23.50;39.50;;;;;;5039666;28;20424;-55
2021/04/27 11:37:46;;;;;;;10.60;9.50;;;24.80;37.80;;;;;;5041274;28;20445;-57
2021/04/27 11:40:30;;;;;;;8.60;7.83;;;25.90;37.00;;;;;;5040715;28;20448;-57
2021/04/27 11:43:00;;;;;;;10.17;8.97;;;26.60;36.90;;;;;;5057136;28;20429;-57
2021/04/27 11:45:28;;;;;;;12.57;9.30;;;25.40;35.60;;;;;;5057138;28;20433;-55
2021/04/27 11:47:55;;;;;;;9.87;8.83;;;25.90;37.00;;;;;;5056945;28;20397;-56
2021/04/27 11:50:24;;;;;;;18.73;10.50;;;26.40;34.10;;;;;;5056912;28;20421;-52
2021/04/27 11:53:08;;;;;;;10.37;9.33;;;25.40;36.20;;;;;;5055514;28;20409;-54
2021/04/27 11:55:35;;;;;;;9.97;8.97;;;25.80;35.50;;;;;;5056899;28;20870;-55
2021/04/27 11:58:05;;;;;;;10.60;8.37;;;26.40;34.70;;;;;;5056835;28;20405;-57
2021/04/27 12:00:42;;;;;;;9.83;8.60;;;24.80;35.90;;;;;;5032619;28;20434;-56
2021/04/27 12:03:32;;;;;;;14.50;8.57;;;26.20;34.60;;;;;;5036802;28;20524;-57
2021/04/27 12:06:07;;;;;;;8.47;7.60;;;24.80;35.70;;;;;;5036701;28;20389;-53
2021/04/27 12:08:42;;;;;;;9.57;8.67;;;25.00;36.00;;;;;;5036875;28;20485;-57
2021/04/27 12:11:11;;;;;;;12.23;8.13;;;25.70;33.70;;;;;;5047800;28;20433;-56
2021/04/27 12:13:38;;;;;;;8.17;7.40;;;27.50;34.30;;;;;;5056625;28;20400;-56
2021/04/27 12:16:16;;;;;;;8.93;7.50;;;27.20;31.90;;;;;;5056443;28;20474;-57
2021/04/27 12:19:02;;;;;;;12.10;9.20;;;27.60;33.10;;;;;;5056741;28;20485;-57
2021/04/27 12:21:51;;;;;;;10.00;8.00;;;25.80;32.90;;;;;;5055978;28;20456;-54
2021/04/27 12:24:24;;;;;;;9.30;8.50;;;25.80;33.90;;;;;;5056216;28;20382;-55
2021/04/27 12:26:54;;;;;;;8.80;7.93;;;24.60;34.50;;;;;;5056087;28;20504;-55
2021/04/27 12:29:31;;;;;;;10.00;9.10;;;25.20;34.60;;;;;;5055019;28;20417;-57
2021/04/27 12:32:10;;;;;;;10.77;8.70;;;24.70;35.00;;;;;;5056247;28;20856;-56
2021/04/27 12:34:52;;;;;;;9.27;8.37;;;25.00;34.70;;;;;;5056528;28;20392;-56
2021/04/27 12:37:17;;;;;;;10.60;8.40;;;26.80;34.60;;;;;;5055868;28;20377;-56
2021/04/27 12:39:43;;;;;;;9.30;8.40;;;25.60;32.80;;;;;;5055940;28;20493;-55
2021/04/27 12:42:21;;;;;;;13.43;8.73;;;25.10;33.70;;;;;;5055497;28;20236;-57
2021/04/27 12:45:06;;;;;;;10.33;8.00;;;26.20;33.30;;;;;;5055643;28;20651;-54
2021/04/27 12:47:34;;;;;;;10.80;7.93;;;26.80;32.20;;;;;;5054947;28;20389;-57
2021/04/27 12:50:15;;;;;;;9.07;8.00;;;26.70;31.30;;;;;;5055523;28;20429;-55
2021/04/27 12:52:40;;;;;;;9.30;8.40;;;26.20;31.60;;;;;;5055821;28;20393;-57
2021/04/27 12:55:10;;;;;;;8.73;7.90;;;25.90;32.00;;;;;;5055698;28;20826;-56
2021/04/27 12:57:36;;;;;;;9.13;7.50;;;25.60;31.70;;;;;;5054909;28;20166;-56